createdAt,value
2022-09-28T00:01:25.161Z,11.13
2022-09-28T00:03:59.861Z,8.93
2022-09-28T00:06:30.167Z,8.27
2022-09-28T00:08:58.794Z,6.60
2022-09-28T00:11:29.245Z,10.80
2022-09-28T00:14:01.467Z,15.47
2022-09-28T00:16:31.888Z,9.10
2022-09-28T00:19:02.260Z,13.30
2022-09-28T00:21:32.294Z,10.73
2022-09-28T00:24:15.679Z,9.80
2022-09-28T00:26:46.939Z,7.80
2022-09-28T00:29:26.618Z,13.33
2022-09-28T00:31:59.958Z,11.97
2022-09-28T00:34:32.300Z,14.03
2022-09-28T00:37:02.006Z,11.17
2022-09-28T00:39:31.685Z,12.47
2022-09-28T00:42:00.611Z,7.43
2022-09-28T00:44:40.113Z,10.43
2022-09-28T00:47:35.499Z,8.23
2022-09-28T00:50:11.989Z,4.73
2022-09-28T00:52:43.963Z,10.97
2022-09-28T00:55:17.036Z,7.40
2022-09-28T00:57:49.692Z,4.83
2022-09-28T01:00:18.196Z,12.67
2022-09-28T01:02:48.256Z,8.20
2022-09-28T01:05:19.051Z,8.03
2022-09-28T01:07:48.476Z,9.90
2022-09-28T01:10:17.052Z,11.63
2022-09-28T01:12:45.403Z,13.53
2022-09-28T01:15:14.748Z,14.13
2022-09-28T01:17:54.147Z,9.67
2022-09-28T01:20:41.992Z,9.80
2022-09-28T01:23:59.282Z,9.33
2022-09-28T01:27:01.643Z,8.00
2022-09-28T01:29:48.571Z,17.17
2022-09-28T01:32:26.779Z,15.00
2022-09-28T01:35:02.791Z,13.63
2022-09-28T01:37:37.382Z,15.60
2022-09-28T01:40:08.301Z,11.43
2022-09-28T01:42:41.052Z,11.23
2022-09-28T01:45:15.502Z,9.87
2022-09-28T01:47:46.499Z,17.43
2022-09-28T01:50:18.564Z,12.47
2022-09-28T01:52:51.959Z,11.30
2022-09-28T01:55:29.405Z,7.43
2022-09-28T01:58:05.909Z,5.00
2022-09-28T02:00:37.264Z,9.00
2022-09-28T02:03:10.976Z,13.27
2022-09-28T02:05:50.664Z,10.30
2022-09-28T02:08:26.965Z,10.73
2022-09-28T02:11:02.499Z,5.47
2022-09-28T02:13:36.530Z,11.20
2022-09-28T02:16:11.923Z,6.07
2022-09-28T02:18:40.452Z,9.90
2022-09-28T02:21:15.863Z,14.30
2022-09-28T02:23:51.605Z,10.90
2022-09-28T02:26:24.155Z,9.40
2022-09-28T02:28:53.887Z,12.10
2022-09-28T02:31:22.479Z,9.40
2022-09-28T02:33:52.584Z,6.37
2022-09-28T02:36:21.091Z,12.30
2022-09-28T02:38:49.727Z,11.93
2022-09-28T02:41:31.770Z,9.60
2022-09-28T02:44:11.394Z,9.53
2022-09-28T02:46:50.485Z,7.80
2022-09-28T02:49:34.626Z,11.33
2022-09-28T02:52:16.464Z,9.07
2022-09-28T02:55:08.027Z,10.33
2022-09-28T02:57:48.887Z,12.50
2022-09-28T03:00:21.769Z,7.90
2022-09-28T03:03:00.226Z,12.47
2022-09-28T03:05:35.920Z,8.23
2022-09-28T03:08:08.161Z,9.93
2022-09-28T03:10:40.344Z,8.17
2022-09-28T03:13:10.091Z,12.20
2022-09-28T03:15:45.162Z,9.30
2022-09-28T03:18:16.379Z,14.47
2022-09-28T03:20:44.907Z,11.03
2022-09-28T03:23:24.497Z,9.43
2022-09-28T03:25:54.545Z,4.50
2022-09-28T03:28:23.292Z,11.63
2022-09-28T03:30:53.036Z,11.77
2022-09-28T03:33:21.879Z,12.23
2022-09-28T03:35:51.490Z,11.43
2022-09-28T03:38:20.530Z,5.63
2022-09-28T03:40:55.185Z,13.67
2022-09-28T03:43:24.183Z,9.77
2022-09-28T03:45:56.853Z,11.67
2022-09-28T03:48:31.901Z,12.20
2022-09-28T03:51:02.692Z,4.93
2022-09-28T03:53:31.261Z,9.47
2022-09-28T03:56:05.134Z,11.03
2022-09-28T03:58:34.527Z,9.70
2022-09-28T04:01:05.682Z,8.33
2022-09-28T04:03:34.726Z,10.63
2022-09-28T04:06:03.106Z,9.60
2022-09-28T04:08:32.025Z,9.50
2022-09-28T04:11:02.000Z,14.07
2022-09-28T04:13:32.080Z,9.27
2022-09-28T04:16:02.207Z,11.77
2022-09-28T04:18:35.480Z,13.00
2022-09-28T04:21:14.369Z,9.23
2022-09-28T04:23:48.903Z,8.77
2022-09-28T04:26:21.921Z,13.20
2022-09-28T04:29:08.345Z,11.70
2022-09-28T04:31:41.824Z,11.70
2022-09-28T04:34:11.842Z,6.27
2022-09-28T04:36:40.738Z,10.67
2022-09-28T04:39:10.108Z,9.10
2022-09-28T04:41:38.580Z,9.23
2022-09-28T04:44:07.139Z,13.33
2022-09-28T04:46:35.785Z,11.67
2022-09-28T04:49:25.583Z,10.37
2022-09-28T04:51:55.443Z,9.70
2022-09-28T04:54:23.744Z,12.20
2022-09-28T04:56:52.944Z,7.77
2022-09-28T04:59:21.377Z,10.60
2022-09-28T05:01:50.497Z,12.43
2022-09-28T05:04:25.755Z,10.13
2022-09-28T05:07:28.131Z,10.93
2022-09-28T05:09:57.059Z,8.60
2022-09-28T05:12:25.526Z,5.63
2022-09-28T05:14:53.899Z,8.23
2022-09-28T05:17:22.977Z,7.40
2022-09-28T05:20:07.665Z,17.77
2022-09-28T05:22:37.610Z,13.03
2022-09-28T05:25:09.365Z,13.90
2022-09-28T05:27:49.214Z,9.53
2022-09-28T05:30:38.926Z,10.07
2022-09-28T05:33:39.657Z,10.77
2022-09-28T05:36:13.317Z,8.60
2022-09-28T05:38:46.756Z,8.10
2022-09-28T05:41:15.653Z,6.90
2022-09-28T05:43:45.661Z,10.83
2022-09-28T05:46:14.575Z,9.50
2022-09-28T05:48:43.626Z,6.73
2022-09-28T05:51:12.086Z,15.67
2022-09-28T05:53:40.547Z,8.80
2022-09-28T05:56:10.354Z,11.93
2022-09-28T05:58:42.552Z,9.00
2022-09-28T06:01:12.430Z,12.93
2022-09-28T06:03:40.920Z,11.80
2022-09-28T06:06:09.348Z,6.97
2022-09-28T06:08:38.591Z,12.77
2022-09-28T06:11:28.149Z,34.10
2022-09-28T06:13:59.435Z,31.80
2022-09-28T06:16:31.156Z,38.80
2022-09-28T06:18:59.680Z,16.03
2022-09-28T06:21:59.294Z,18.17
2022-09-28T06:24:28.024Z,8.03
2022-09-28T06:26:57.727Z,7.20
2022-09-28T06:29:26.025Z,14.30
2022-09-28T06:31:54.689Z,10.57
2022-09-28T06:34:24.773Z,8.70
2022-09-28T06:37:12.055Z,13.70
2022-09-28T06:39:40.487Z,8.50
2022-09-28T06:42:10.381Z,11.77
2022-09-28T06:44:59.252Z,10.40
2022-09-28T06:47:44.761Z,9.00
2022-09-28T06:50:37.438Z,22.83
2022-09-28T06:53:24.281Z,19.07
2022-09-28T06:56:02.584Z,11.30
2022-09-28T06:58:33.220Z,12.93
2022-09-28T07:01:04.046Z,10.67
2022-09-28T07:03:42.065Z,12.07
2022-09-28T07:06:48.003Z,12.33
2022-09-28T07:09:36.934Z,7.63
2022-09-28T07:12:25.457Z,8.13
2022-09-28T07:14:58.252Z,11.53
2022-09-28T07:17:29.590Z,11.17
2022-09-28T07:20:14.321Z,12.63
2022-09-28T07:22:47.966Z,11.37
2022-09-28T07:25:20.635Z,10.80
2022-09-28T07:28:09.495Z,11.73
2022-09-28T07:30:48.351Z,12.37
2022-09-28T07:33:36.800Z,22.37
2022-09-28T07:36:24.387Z,13.30
2022-09-28T07:38:54.289Z,12.23
2022-09-28T07:41:32.547Z,23.43
2022-09-28T07:44:06.298Z,19.10
2022-09-28T07:46:38.121Z,16.43
2022-09-28T07:49:12.772Z,19.17
2022-09-28T07:51:59.301Z,10.43
2022-09-28T07:54:31.260Z,14.93
2022-09-28T07:57:15.267Z,13.30
2022-09-28T07:59:53.627Z,11.50
2022-09-28T08:02:43.721Z,17.30
2022-09-28T08:05:13.455Z,11.20
2022-09-28T08:07:43.926Z,11.83
2022-09-28T08:10:13.331Z,14.40
2022-09-28T08:13:08.583Z,13.70
2022-09-28T08:15:56.299Z,17.60
2022-09-28T08:18:36.023Z,13.23
2022-09-28T08:21:22.557Z,15.40
2022-09-28T08:23:51.153Z,21.90
2022-09-28T08:26:19.604Z,15.17
2022-09-28T08:28:48.672Z,17.93
2022-09-28T08:31:45.566Z,15.67
2022-09-28T08:34:24.492Z,15.03
2022-09-28T08:37:21.564Z,16.37
2022-09-28T08:40:25.030Z,19.03
2022-09-28T08:43:29.436Z,17.40
2022-09-28T08:46:14.738Z,11.70
2022-09-28T08:49:26.114Z,12.50
2022-09-28T08:52:14.998Z,14.23
2022-09-28T08:55:17.672Z,19.87
2022-09-28T08:57:52.483Z,24.10
2022-09-28T09:00:27.175Z,19.00
2022-09-28T09:03:17.328Z,21.67
2022-09-28T09:06:07.117Z,17.77
2022-09-28T09:09:12.095Z,15.93
2022-09-28T09:11:58.318Z,18.20
2022-09-28T09:14:44.392Z,18.43
2022-09-28T09:17:19.937Z,18.73
2022-09-28T09:20:26.968Z,15.47
2022-09-28T09:23:09.782Z,21.07
2022-09-28T09:25:43.469Z,20.57
2022-09-28T09:28:35.265Z,20.33
2022-09-28T09:31:13.729Z,23.30
2022-09-28T09:34:17.840Z,18.37
2022-09-28T09:37:16.752Z,19.57
2022-09-28T09:40:30.633Z,22.97
2022-09-28T09:43:48.800Z,20.43
2022-09-28T09:46:40.176Z,32.37
2022-09-28T09:49:35.104Z,22.93
2022-09-28T09:52:11.599Z,22.00
2022-09-28T09:54:44.499Z,15.90
2022-09-28T09:57:30.615Z,19.60
2022-09-28T10:00:19.911Z,15.60
2022-09-28T10:03:04.091Z,20.80
2022-09-28T10:05:45.075Z,15.50
2022-09-28T10:08:18.455Z,19.23
2022-09-28T10:10:52.715Z,13.10
2022-09-28T10:13:23.289Z,10.10
2022-09-28T10:15:57.228Z,23.17
2022-09-28T10:18:35.489Z,7.67
2022-09-28T10:21:24.880Z,10.87
2022-09-28T10:24:02.804Z,7.57
2022-09-28T10:26:36.691Z,6.43
2022-09-28T10:29:13.198Z,6.10
2022-09-28T10:31:45.633Z,9.37
2022-09-28T10:34:32.548Z,12.70
2022-09-28T10:37:12.267Z,10.63
2022-09-28T10:39:58.909Z,9.43
2022-09-28T10:42:36.155Z,13.90
2022-09-28T10:45:23.295Z,10.10
2022-09-28T10:47:53.995Z,14.33
2022-09-28T10:50:25.393Z,8.40
2022-09-28T10:53:14.301Z,10.60
2022-09-28T10:56:22.858Z,5.33
2022-09-28T10:59:00.153Z,6.97
2022-09-28T11:01:43.131Z,11.73
2022-09-28T11:04:21.633Z,8.00
2022-09-28T11:06:50.459Z,8.77
2022-09-28T11:09:30.643Z,8.17
2022-09-28T11:12:06.820Z,11.00
2022-09-28T11:14:42.465Z,6.70
2022-09-28T11:17:25.769Z,14.07
2022-09-28T11:19:56.154Z,14.10
2022-09-28T11:22:28.947Z,11.27
2022-09-28T11:25:24.153Z,12.07
2022-09-28T11:28:04.666Z,11.03
2022-09-28T11:30:40.611Z,9.70
2022-09-28T11:33:41.240Z,12.20
2022-09-28T11:36:45.991Z,8.00
2022-09-28T11:39:24.232Z,4.53
2022-09-28T11:42:05.943Z,10.97
2022-09-28T11:44:41.343Z,8.63
2022-09-28T11:47:36.359Z,14.43
2022-09-28T11:50:17.913Z,13.70
2022-09-28T11:52:57.691Z,12.03
2022-09-28T11:55:32.458Z,9.50
2022-09-28T11:58:06.236Z,11.90
2022-09-28T12:00:41.402Z,12.13
2022-09-28T12:03:15.614Z,11.73
2022-09-28T12:05:50.297Z,20.23
2022-09-28T12:08:27.443Z,13.77
2022-09-28T12:11:13.733Z,14.40
2022-09-28T12:14:03.888Z,11.67
2022-09-28T12:19:33.221Z,12.47
2022-09-28T12:22:06.373Z,7.00
2022-09-28T12:24:41.465Z,12.50
2022-09-28T12:27:18.746Z,13.07
2022-09-28T12:29:51.593Z,12.63
2022-09-28T12:32:29.616Z,10.03
2022-09-28T12:34:58.500Z,10.47
2022-09-28T12:37:40.432Z,5.77
2022-09-28T12:43:19.605Z,6.00
2022-09-28T12:46:12.055Z,6.90
2022-09-28T12:49:47.323Z,7.03
2022-09-28T12:51:52.311Z,10.50
2022-09-28T12:54:54.332Z,5.33
2022-09-28T12:57:37.176Z,4.10
2022-09-28T13:00:11.259Z,9.43
2022-09-28T13:03:08.976Z,4.93
2022-09-28T13:06:13.845Z,8.20
2022-09-28T13:08:57.617Z,7.03
2022-09-28T13:11:34.188Z,5.60
2022-09-28T13:14:35.101Z,3.50
2022-09-28T13:17:12.532Z,6.73
2022-09-28T13:19:48.302Z,3.10
2022-09-28T13:22:29.453Z,7.33
2022-09-28T13:25:04.059Z,8.23
2022-09-28T13:27:36.438Z,3.37
2022-09-28T13:30:07.981Z,3.50
2022-09-28T13:32:39.289Z,5.10
2022-09-28T13:35:08.530Z,6.10
2022-09-28T13:37:36.851Z,6.77
2022-09-28T13:40:06.375Z,3.97
2022-09-28T13:43:10.626Z,7.33
2022-09-28T13:45:53.729Z,10.40
2022-09-28T13:48:29.388Z,10.30
2022-09-28T13:51:23.613Z,9.23
2022-09-28T13:54:15.751Z,6.30
2022-09-28T13:56:54.994Z,6.63
2022-09-28T13:59:27.092Z,6.53
2022-09-28T14:02:06.759Z,7.93
2022-09-28T14:04:58.478Z,6.93
2022-09-28T14:10:20.891Z,5.07
2022-09-28T14:12:51.435Z,6.77
2022-09-28T14:15:47.405Z,7.17
2022-09-28T14:18:29.003Z,6.53
2022-09-28T14:21:29.487Z,4.10
2022-09-28T14:24:19.072Z,7.17
2022-09-28T14:27:12.909Z,8.20
2022-09-28T14:29:41.712Z,4.97
2022-09-28T14:32:24.633Z,5.20
2022-09-28T14:35:02.365Z,17.50
2022-09-28T14:37:52.065Z,6.50
2022-09-28T14:40:40.169Z,8.43
2022-09-28T14:43:26.900Z,5.30
2022-09-28T14:46:32.491Z,6.20
2022-09-28T14:49:03.206Z,4.60
2022-09-28T14:52:08.216Z,7.70
2022-09-28T14:54:46.405Z,5.07
2022-09-28T14:57:19.624Z,4.60
2022-09-28T14:59:48.500Z,6.90
2022-09-28T15:02:24.755Z,5.70
2022-09-28T15:04:57.013Z,6.30
2022-09-28T15:07:28.769Z,6.87
2022-09-28T15:09:59.511Z,5.73
2022-09-28T15:12:29.448Z,3.97
2022-09-28T15:15:02.193Z,9.23
2022-09-28T15:17:39.165Z,9.23
2022-09-28T15:20:21.800Z,7.90
2022-09-28T15:22:52.531Z,4.87
2022-09-28T15:25:26.073Z,6.27
2022-09-28T15:27:56.435Z,4.23
2022-09-28T15:30:28.172Z,4.53
2022-09-28T15:33:18.125Z,4.23
2022-09-28T15:35:48.257Z,10.33
2022-09-28T15:38:18.502Z,6.87
2022-09-28T15:40:48.702Z,4.90
2022-09-28T15:43:28.912Z,8.00
2022-09-28T15:46:07.332Z,10.80
2022-09-28T15:48:42.127Z,5.47
2022-09-28T15:51:12.230Z,8.30
2022-09-28T15:53:44.600Z,6.60
2022-09-28T15:56:14.416Z,4.77
2022-09-28T15:58:42.976Z,5.00
2022-09-28T16:01:27.040Z,4.60
2022-09-28T16:03:55.508Z,5.80
2022-09-28T16:06:24.268Z,5.20
2022-09-28T16:08:52.557Z,4.10
2022-09-28T16:11:26.448Z,4.10
2022-09-28T16:14:05.928Z,4.50
2022-09-28T16:16:41.250Z,12.47
2022-09-28T16:19:24.508Z,4.00
2022-09-28T16:21:55.698Z,9.03
2022-09-28T16:24:26.553Z,6.00
2022-09-28T16:27:02.378Z,6.10
2022-09-28T16:29:40.095Z,3.53
2022-09-28T16:32:35.478Z,7.23
2022-09-28T16:35:18.972Z,6.13
2022-09-28T16:37:48.880Z,5.03
2022-09-28T16:40:17.460Z,6.30
2022-09-28T16:42:49.272Z,8.60
2022-09-28T16:45:21.562Z,6.40
2022-09-28T16:47:53.017Z,7.97
2022-09-28T16:50:22.265Z,6.50
2022-09-28T16:53:14.813Z,3.47
2022-09-28T16:55:43.163Z,4.03
2022-09-28T16:58:13.131Z,8.30
2022-09-28T17:00:43.529Z,9.30
2022-09-28T17:03:15.781Z,6.50
2022-09-28T17:05:44.469Z,6.40
2022-09-28T17:08:17.501Z,5.07
2022-09-28T17:11:13.015Z,8.27
2022-09-28T17:13:40.942Z,4.57
2022-09-28T17:16:13.958Z,3.80
2022-09-28T17:18:42.377Z,4.53
2022-09-28T17:21:15.822Z,7.40
2022-09-28T17:23:44.630Z,5.03
2022-09-28T17:26:19.512Z,5.80
2022-09-28T17:28:49.352Z,7.72
2022-09-28T17:31:18.020Z,7.30
2022-09-28T17:33:46.472Z,4.53
2022-09-28T17:36:16.847Z,4.67
2022-09-28T17:38:46.225Z,4.40
2022-09-28T17:41:20.264Z,3.43
2022-09-28T17:43:50.791Z,5.80
2022-09-28T17:46:27.409Z,5.83
2022-09-28T17:48:57.607Z,4.13
2022-09-28T17:51:26.469Z,2.90
2022-09-28T17:53:56.174Z,4.65
2022-09-28T17:56:27.558Z,6.68
2022-09-28T17:59:03.289Z,4.30
2022-09-28T18:01:34.385Z,4.40
2022-09-28T18:04:04.175Z,7.50
2022-09-28T18:06:33.619Z,4.77
2022-09-28T18:09:03.027Z,6.73
2022-09-28T18:11:31.722Z,5.27
2022-09-28T18:14:01.701Z,7.07
2022-09-28T18:16:30.287Z,4.30
2022-09-28T18:18:59.789Z,5.17
2022-09-28T18:21:28.076Z,6.23
2022-09-28T18:23:56.522Z,7.30
2022-09-28T18:26:24.857Z,9.30
2022-09-28T18:28:55.232Z,6.20
2022-09-28T18:31:24.944Z,7.03
2022-09-28T18:34:00.307Z,4.63
2022-09-28T18:36:32.392Z,6.00
2022-09-28T18:39:02.050Z,7.23
2022-09-28T18:41:30.433Z,5.77
2022-09-28T18:44:00.857Z,6.50
2022-09-28T18:46:36.763Z,7.70
2022-09-28T18:49:05.882Z,8.40
2022-09-28T18:51:34.204Z,11.30
2022-09-28T18:54:07.313Z,6.80
2022-09-28T18:56:38.037Z,3.40
2022-09-28T18:59:11.923Z,5.80
2022-09-28T19:01:43.282Z,9.67
2022-09-28T19:04:13.607Z,5.50
2022-09-28T19:06:44.461Z,3.30
2022-09-28T19:09:13.248Z,5.53
2022-09-28T19:11:41.737Z,6.60
2022-09-28T19:14:11.568Z,4.47
2022-09-28T19:16:41.273Z,6.33
2022-09-28T19:19:12.397Z,5.97
2022-09-28T19:21:41.377Z,4.73
2022-09-28T19:24:13.256Z,9.27
2022-09-28T19:26:42.046Z,5.37
2022-09-28T19:29:11.720Z,8.17
2022-09-28T19:31:43.268Z,5.90
2022-09-28T19:34:14.154Z,5.80
2022-09-28T19:36:43.153Z,5.27
2022-09-28T19:39:14.760Z,12.77
2022-09-28T19:41:49.591Z,4.30
2022-09-28T19:44:24.891Z,6.80
2022-09-28T19:46:56.252Z,6.17
2022-09-28T19:49:25.902Z,4.43
2022-09-28T19:52:12.079Z,8.40
2022-09-28T19:54:43.871Z,5.20
2022-09-28T19:57:12.948Z,8.73
2022-09-28T19:59:41.470Z,5.20
2022-09-28T20:02:12.146Z,3.53
2022-09-28T20:04:40.627Z,9.83
2022-09-28T20:07:09.033Z,5.97
2022-09-28T20:09:37.360Z,5.03
2022-09-28T20:12:05.928Z,6.40
2022-09-28T20:14:39.469Z,7.13
2022-09-28T20:17:10.281Z,6.40
2022-09-28T20:19:38.649Z,11.47
2022-09-28T20:22:06.994Z,9.43
2022-09-28T20:24:35.275Z,6.30
2022-09-28T20:27:03.679Z,7.60
2022-09-28T20:29:33.345Z,7.60
2022-09-28T20:32:04.014Z,4.30
2022-09-28T20:34:34.526Z,8.20
2022-09-28T20:37:02.894Z,4.77
2022-09-28T20:39:31.240Z,7.83
2022-09-28T20:41:59.578Z,7.67
2022-09-28T20:44:28.244Z,7.00
2022-09-28T20:46:56.819Z,5.23
2022-09-28T20:49:27.173Z,3.03
2022-09-28T20:51:56.908Z,4.80
2022-09-28T20:54:25.598Z,7.83
2022-09-28T20:56:53.928Z,2.77
2022-09-28T20:59:25.961Z,5.40
2022-09-28T21:01:54.365Z,6.00
2022-09-28T21:04:22.800Z,8.80
2022-09-28T21:06:51.319Z,5.67
2022-09-28T21:09:21.102Z,5.23
2022-09-28T21:11:49.336Z,5.53
2022-09-28T21:14:17.751Z,4.83
2022-09-28T21:16:46.158Z,4.20
2022-09-28T21:19:15.531Z,7.27
2022-09-28T21:21:45.625Z,5.70
2022-09-28T21:24:17.305Z,5.30
2022-09-28T21:26:49.561Z,6.10
2022-09-28T21:29:19.816Z,8.00
2022-09-28T21:31:51.680Z,13.60
2022-09-28T21:34:22.147Z,7.73
2022-09-28T21:36:52.550Z,4.37
2022-09-28T21:39:21.208Z,6.53
2022-09-28T21:41:50.916Z,7.10
2022-09-28T21:44:19.253Z,5.80
2022-09-28T21:46:47.762Z,6.20
2022-09-28T21:49:16.072Z,6.33
2022-09-28T21:51:47.014Z,4.50
2022-09-28T21:54:15.466Z,5.50
2022-09-28T21:56:43.949Z,6.03
2022-09-28T21:59:13.552Z,6.10
2022-09-28T22:01:42.630Z,7.20
2022-09-28T22:04:12.033Z,7.17
2022-09-28T22:06:40.826Z,12.00
2022-09-28T22:09:09.228Z,8.83
2022-09-28T22:11:38.308Z,7.00
2022-09-28T22:14:06.714Z,9.23
2022-09-28T22:16:36.401Z,10.40
2022-09-28T22:19:04.842Z,10.83
2022-09-28T22:21:34.970Z,7.67
2022-09-28T22:24:05.537Z,8.93
2022-09-28T22:26:35.788Z,8.90
2022-09-28T22:29:06.631Z,13.53
2022-09-28T22:31:39.098Z,13.90
2022-09-28T22:34:08.245Z,11.30
2022-09-28T22:36:36.878Z,11.43
2022-09-28T22:39:05.655Z,12.77
2022-09-28T22:41:34.203Z,11.17
2022-09-28T22:44:02.964Z,12.90
2022-09-28T22:46:32.593Z,15.00
2022-09-28T22:49:02.786Z,11.03
2022-09-28T22:51:32.454Z,8.23
2022-09-28T22:54:01.243Z,9.77
2022-09-28T22:56:30.144Z,12.97
2022-09-28T22:58:58.816Z,16.50
2022-09-28T23:01:29.008Z,13.53
2022-09-28T23:03:58.254Z,11.27
2022-09-28T23:06:30.771Z,15.80
2022-09-28T23:08:59.226Z,13.43
2022-09-28T23:11:27.889Z,11.93
2022-09-28T23:13:58.156Z,14.77
2022-09-28T23:16:27.728Z,21.30
2022-09-28T23:18:56.887Z,10.70
2022-09-28T23:21:28.099Z,14.97
2022-09-28T23:23:58.565Z,17.43
2022-09-28T23:26:29.436Z,13.67
2022-09-28T23:28:58.456Z,14.73
2022-09-28T23:31:28.799Z,12.10
2022-09-28T23:34:01.244Z,20.47
2022-09-28T23:36:31.553Z,17.60
2022-09-28T23:39:00.118Z,16.53
2022-09-28T23:41:28.568Z,14.70
2022-09-28T23:43:57.187Z,15.13
2022-09-28T23:46:25.675Z,14.03
2022-09-28T23:48:54.120Z,21.37
2022-09-28T23:51:22.541Z,29.70
2022-09-28T23:53:52.259Z,17.10
2022-09-28T23:56:21.154Z,16.73
2022-09-28T23:58:49.567Z,18.97
